Terminal Aerodrome Forecast
Issued by NWS Portland, OR

Home | Current Version | Previous Version | Text Only | Print | Product List | Glossary On
Versions: 1 2 3 4 5 6 7 8 9 10 11 12 13 14
000
FTUS46 KPQR 210528
TAFHIO
TAF
KHIO 210528Z 2106/2206 00000KT P6SM SCT029 SCT040
     FM210800 26003KT P6SM OVC150
     FM212100 34004KT P6SM -RA OVC040=

USA.gov is the U.S. government's official web portal to all federal, state and local government web resources and services.